sensor_id;sensor_type;location;lat;lon;timestamp;pressure;altitude;pressure_sealevel;temperature;humidity
39739;BME280;25422;48.286;8.484;2023-06-05T00:00:52;94176.78;;;8.75;100.00
39739;BME280;25422;48.286;8.484;2023-06-05T00:03:17;94172.97;;;8.69;100.00
39739;BME280;25422;48.286;8.484;2023-06-05T00:05:43;94174.59;;;8.62;100.00
39739;BME280;25422;48.286;8.484;2023-06-05T00:08:08;94171.59;;;8.49;100.00
39739;BME280;25422;48.286;8.484;2023-06-05T00:10:34;94172.06;;;8.44;100.00
39739;BME280;25422;48.286;8.484;2023-06-05T00:12:59;94172.19;;;8.34;100.00
39739;BME280;25422;48.286;8.484;2023-06-05T00:15:25;94170.41;;;8.43;100.00
39739;BME280;25422;48.286;8.484;2023-06-05T00:17:50;94170.00;;;8.56;100.00
39739;BME280;25422;48.286;8.484;2023-06-05T00:20:17;94172.94;;;8.53;100.00
39739;BME280;25422;48.286;8.484;2023-06-05T00:22:42;94166.13;;;8.60;100.00
39739;BME280;25422;48.286;8.484;2023-06-05T00:25:12;94161.56;;;8.62;100.00
39739;BME280;25422;48.286;8.484;2023-06-05T00:27:38;94157.94;;;8.55;100.00
39739;BME280;25422;48.286;8.484;2023-06-05T00:30:09;94160.53;;;8.47;100.00
39739;BME280;25422;48.286;8.484;2023-06-05T00:32:35;94163.66;;;8.24;100.00
39739;BME280;25422;48.286;8.484;2023-06-05T00:35:01;94162.72;;;8.07;100.00
39739;BME280;25422;48.286;8.484;2023-06-05T00:37:27;94154.38;;;7.95;100.00
39739;BME280;25422;48.286;8.484;2023-06-05T00:39:52;94152.06;;;7.92;100.00
39739;BME280;25422;48.286;8.484;2023-06-05T00:42:18;94153.72;;;7.93;100.00
39739;BME280;25422;48.286;8.484;2023-06-05T00:44:43;94157.94;;;7.94;100.00
39739;BME280;25422;48.286;8.484;2023-06-05T00:47:10;94150.50;;;7.99;100.00
39739;BME280;25422;48.286;8.484;2023-06-05T00:49:36;94154.59;;;8.02;100.00
39739;BME280;25422;48.286;8.484;2023-06-05T00:52:01;94154.59;;;8.02;100.00
39739;BME280;25422;48.286;8.484;2023-06-05T00:54:27;94159.94;;;8.00;100.00
39739;BME280;25422;48.286;8.484;2023-06-05T00:56:53;94153.91;;;8.00;100.00
39739;BME280;25422;48.286;8.484;2023-06-05T00:59:20;94159.13;;;8.00;100.00
39739;BME280;25422;48.286;8.484;2023-06-05T01:01:45;94154.22;;;7.97;100.00
39739;BME280;25422;48.286;8.484;2023-06-05T01:04:13;94157.63;;;7.97;100.00
39739;BME280;25422;48.286;8.484;2023-06-05T01:06:38;94155.72;;;7.99;100.00
39739;BME280;25422;48.286;8.484;2023-06-05T01:09:06;94156.69;;;7.98;100.00
39739;BME280;25422;48.286;8.484;2023-06-05T01:14:24;94159.06;;;7.91;100.00
39739;BME280;25422;48.286;8.484;2023-06-05T01:16:53;94161.31;;;7.60;100.00
39739;BME280;25422;48.286;8.484;2023-06-05T01:19:23;94161.91;;;7.54;100.00
39739;BME280;25422;48.286;8.484;2023-06-05T01:21:51;94162.53;;;7.48;100.00
39739;BME280;25422;48.286;8.484;2023-06-05T01:24:17;94162.97;;;7.43;100.00
39739;BME280;25422;48.286;8.484;2023-06-05T01:27:15;94162.41;;;7.31;100.00
39739;BME280;25422;48.286;8.484;2023-06-05T01:29:57;94149.81;;;7.26;100.00
39739;BME280;25422;48.286;8.484;2023-06-05T01:32:44;94152.00;;;7.31;100.00
39739;BME280;25422;48.286;8.484;2023-06-05T01:35:13;94151.84;;;7.33;100.00
39739;BME280;25422;48.286;8.484;2023-06-05T01:37:44;94154.88;;;7.28;100.00
39739;BME280;25422;48.286;8.484;2023-06-05T01:40:15;94148.78;;;7.19;100.00
39739;BME280;25422;48.286;8.484;2023-06-05T01:42:42;94146.78;;;7.13;100.00
39739;BME280;25422;48.286;8.484;2023-06-05T01:45:09;94156.38;;;6.95;100.00
39739;BME280;25422;48.286;8.484;2023-06-05T01:47:36;94155.84;;;6.91;100.00
39739;BME280;25422;48.286;8.484;2023-06-05T01:50:03;94148.38;;;6.78;100.00
39739;BME280;25422;48.286;8.484;2023-06-05T01:52:29;94155.03;;;6.90;100.00
39739;BME280;25422;48.286;8.484;2023-06-05T01:54:54;94142.22;;;6.97;100.00
39739;BME280;25422;48.286;8.484;2023-06-05T01:57:20;94147.97;;;7.01;100.00
39739;BME280;25422;48.286;8.484;2023-06-05T01:59:47;94149.38;;;6.95;100.00
39739;BME280;25422;48.286;8.484;2023-06-05T02:02:14;94149.59;;;7.02;100.00
39739;BME280;25422;48.286;8.484;2023-06-05T02:04:44;94146.69;;;7.05;100.00
39739;BME280;25422;48.286;8.484;2023-06-05T02:07:11;94148.66;;;7.03;100.00
39739;BME280;25422;48.286;8.484;2023-06-05T02:09:41;94146.78;;;6.95;100.00
39739;BME280;25422;48.286;8.484;2023-06-05T02:12:07;94144.75;;;6.71;100.00
39739;BME280;25422;48.286;8.484;2023-06-05T02:14:33;94146.97;;;6.66;100.00
39739;BME280;25422;48.286;8.484;2023-06-05T02:17:05;94148.38;;;6.60;100.00
39739;BME280;25422;48.286;8.484;2023-06-05T02:19:32;94146.44;;;6.62;100.00
39739;BME280;25422;48.286;8.484;2023-06-05T02:21:58;94152.31;;;6.64;100.00
39739;BME280;25422;48.286;8.484;2023-06-05T02:24:24;94137.81;;;6.62;100.00
39739;BME280;25422;48.286;8.484;2023-06-05T02:26:51;94139.84;;;6.68;100.00
39739;BME280;25422;48.286;8.484;2023-06-05T02:29:16;94139.06;;;6.57;100.00
39739;BME280;25422;48.286;8.484;2023-06-05T02:31:42;94142.50;;;6.58;100.00
39739;BME280;25422;48.286;8.484;2023-06-05T02:34:07;94137.81;;;6.62;100.00
39739;BME280;25422;48.286;8.484;2023-06-05T02:36:33;94141.66;;;6.39;100.00
39739;BME280;25422;48.286;8.484;2023-06-05T02:39:01;94146.34;;;6.26;100.00
39739;BME280;25422;48.286;8.484;2023-06-05T02:41:28;94137.50;;;6.19;100.00
39739;BME280;25422;48.286;8.484;2023-06-05T02:43:53;94145.78;;;6.32;100.00
39739;BME280;25422;48.286;8.484;2023-06-05T02:46:22;94142.22;;;6.05;100.00
39739;BME280;25422;48.286;8.484;2023-06-05T02:48:50;94140.41;;;6.06;100.00
39739;BME280;25422;48.286;8.484;2023-06-05T02:51:16;94146.19;;;6.00;100.00
39739;BME280;25422;48.286;8.484;2023-06-05T02:53:43;94145.78;;;5.95;100.00
39739;BME280;25422;48.286;8.484;2023-06-05T02:56:09;94144.97;;;5.94;100.00
39739;BME280;25422;48.286;8.484;2023-06-05T02:58:35;94143.97;;;5.95;100.00
39739;BME280;25422;48.286;8.484;2023-06-05T03:01:01;94146.19;;;5.90;100.00
39739;BME280;25422;48.286;8.484;2023-06-05T03:03:37;94147.97;;;5.99;100.00
39739;BME280;25422;48.286;8.484;2023-06-05T03:06:03;94140.44;;;5.96;100.00
39739;BME280;25422;48.286;8.484;2023-06-05T03:08:34;94145.50;;;5.88;100.00
39739;BME280;25422;48.286;8.484;2023-06-05T03:11:01;94138.69;;;5.87;100.00
39739;BME280;25422;48.286;8.484;2023-06-05T03:13:27;94139.78;;;5.94;100.00
39739;BME280;25422;48.286;8.484;2023-06-05T03:15:55;94137.56;;;5.99;100.00
39739;BME280;25422;48.286;8.484;2023-06-05T03:18:24;94138.53;;;5.88;100.00
39739;BME280;25422;48.286;8.484;2023-06-05T03:20:54;94138.28;;;5.82;100.00
39739;BME280;25422;48.286;8.484;2023-06-05T03:23:27;94134.22;;;5.69;100.00
39739;BME280;25422;48.286;8.484;2023-06-05T03:25:54;94135.31;;;5.67;100.00
39739;BME280;25422;48.286;8.484;2023-06-05T03:28:21;94138.06;;;5.65;100.00
39739;BME280;25422;48.286;8.484;2023-06-05T03:30:48;94141.06;;;5.70;100.00
39739;BME280;25422;48.286;8.484;2023-06-05T03:33:15;94140.25;;;5.70;100.00
39739;BME280;25422;48.286;8.484;2023-06-05T03:35:42;94142.84;;;5.70;100.00
39739;BME280;25422;48.286;8.484;2023-06-05T03:38:12;94141.47;;;5.56;100.00
39739;BME280;25422;48.286;8.484;2023-06-05T03:40:38;94147.78;;;5.44;100.00
39739;BME280;25422;48.286;8.484;2023-06-05T03:43:06;94138.38;;;5.43;100.00
39739;BME280;25422;48.286;8.484;2023-06-05T03:45:36;94138.25;;;5.44;100.00
39739;BME280;25422;48.286;8.484;2023-06-05T03:48:02;94145.78;;;5.28;100.00
39739;BME280;25422;48.286;8.484;2023-06-05T03:50:32;94144.00;;;5.28;100.00
39739;BME280;25422;48.286;8.484;2023-06-05T03:52:59;94151.09;;;5.46;100.00
39739;BME280;25422;48.286;8.484;2023-06-05T03:55:30;94146.97;;;5.53;100.00
39739;BME280;25422;48.286;8.484;2023-06-05T03:58:15;94144.78;;;5.58;100.00
39739;BME280;25422;48.286;8.484;2023-06-05T04:00:45;94150.09;;;5.56;100.00
39739;BME280;25422;48.286;8.484;2023-06-05T04:03:12;94145.72;;;5.57;100.00
39739;BME280;25422;48.286;8.484;2023-06-05T04:05:39;94148.69;;;5.72;100.00
39739;BME280;25422;48.286;8.484;2023-06-05T04:08:05;94157.94;;;5.94;100.00
39739;BME280;25422;48.286;8.484;2023-06-05T04:10:31;94158.69;;;6.14;100.00
39739;BME280;25422;48.286;8.484;2023-06-05T04:12:57;94155.69;;;6.19;100.00
39739;BME280;25422;48.286;8.484;2023-06-05T04:15:25;94151.84;;;6.23;100.00
39739;BME280;25422;48.286;8.484;2023-06-05T04:17:50;94155.09;;;6.35;100.00
39739;BME280;25422;48.286;8.484;2023-06-05T04:20:16;94155.03;;;6.45;100.00
39739;BME280;25422;48.286;8.484;2023-06-05T04:22:44;94151.41;;;6.55;100.00
39739;BME280;25422;48.286;8.484;2023-06-05T04:25:11;94158.19;;;6.66;100.00
39739;BME280;25422;48.286;8.484;2023-06-05T04:27:38;94151.81;;;6.79;100.00
39739;BME280;25422;48.286;8.484;2023-06-05T04:30:09;94157.53;;;6.82;100.00
39739;BME280;25422;48.286;8.484;2023-06-05T04:32:36;94145.50;;;6.99;100.00
39739;BME280;25422;48.286;8.484;2023-06-05T04:35:06;94147.53;;;7.23;100.00
39739;BME280;25422;48.286;8.484;2023-06-05T04:37:34;94146.16;;;7.37;100.00
39739;BME280;25422;48.286;8.484;2023-06-05T04:40:00;94153.53;;;7.42;100.00
39739;BME280;25422;48.286;8.484;2023-06-05T04:42:31;94140.78;;;7.57;100.00
39739;BME280;25422;48.286;8.484;2023-06-05T04:45:00;94145.88;;;7.93;100.00
39739;BME280;25422;48.286;8.484;2023-06-05T04:47:31;94152.34;;;8.41;100.00
39739;BME280;25422;48.286;8.484;2023-06-05T04:50:02;94154.25;;;8.66;100.00
39739;BME280;25422;48.286;8.484;2023-06-05T04:52:31;94151.16;;;8.78;100.00
39739;BME280;25422;48.286;8.484;2023-06-05T04:54:59;94150.41;;;8.94;100.00
39739;BME280;25422;48.286;8.484;2023-06-05T04:57:28;94153.69;;;9.13;100.00
39739;BME280;25422;48.286;8.484;2023-06-05T04:59:55;94146.22;;;9.35;100.00
39739;BME280;25422;48.286;8.484;2023-06-05T05:02:23;94150.28;;;9.70;100.00
39739;BME280;25422;48.286;8.484;2023-06-05T05:04:49;94157.75;;;9.98;100.00
39739;BME280;25422;48.286;8.484;2023-06-05T05:07:15;94152.78;;;10.44;100.00
39739;BME280;25422;48.286;8.484;2023-06-05T05:09:45;94153.25;;;10.79;100.00
39739;BME280;25422;48.286;8.484;2023-06-05T05:12:12;94144.19;;;11.22;100.00
39739;BME280;25422;48.286;8.484;2023-06-05T05:14:38;94155.47;;;11.45;100.00
39739;BME280;25422;48.286;8.484;2023-06-05T05:17:05;94145.41;;;11.57;100.00
39739;BME280;25422;48.286;8.484;2023-06-05T05:19:31;94150.78;;;11.79;100.00
39739;BME280;25422;48.286;8.484;2023-06-05T05:21:58;94147.09;;;12.56;100.00
39739;BME280;25422;48.286;8.484;2023-06-05T05:24:24;94152.19;;;12.94;100.00
39739;BME280;25422;48.286;8.484;2023-06-05T05:26:51;94152.47;;;13.36;100.00
39739;BME280;25422;48.286;8.484;2023-06-05T05:29:18;94152.69;;;14.48;100.00
39739;BME280;25422;48.286;8.484;2023-06-05T05:31:44;94146.06;;;15.96;94.90
39739;BME280;25422;48.286;8.484;2023-06-05T05:34:10;94145.09;;;16.82;85.76
39739;BME280;25422;48.286;8.484;2023-06-05T05:36:35;94143.50;;;18.16;69.30
39739;BME280;25422;48.286;8.484;2023-06-05T05:39:03;94152.31;;;18.53;64.08
39739;BME280;25422;48.286;8.484;2023-06-05T05:41:28;94152.16;;;19.41;59.89
39739;BME280;25422;48.286;8.484;2023-06-05T05:43:54;94148.44;;;20.15;54.56
39739;BME280;25422;48.286;8.484;2023-06-05T05:46:20;94153.47;;;21.11;49.05
39739;BME280;25422;48.286;8.484;2023-06-05T05:48:45;94152.78;;;21.90;45.15
39739;BME280;25422;48.286;8.484;2023-06-05T05:51:10;94158.16;;;22.08;43.45
39739;BME280;25422;48.286;8.484;2023-06-05T05:53:36;94153.69;;;22.64;42.48
39739;BME280;25422;48.286;8.484;2023-06-05T05:56:02;94149.78;;;23.33;40.52
39739;BME280;25422;48.286;8.484;2023-06-05T05:58:29;94155.25;;;23.21;40.31
39739;BME280;25422;48.286;8.484;2023-06-05T06:00:55;94153.47;;;23.82;39.38
39739;BME280;25422;48.286;8.484;2023-06-05T06:03:20;94158.88;;;24.14;38.38
39739;BME280;25422;48.286;8.484;2023-06-05T06:05:46;94158.47;;;23.46;37.81
39739;BME280;25422;48.286;8.484;2023-06-05T06:08:11;94154.66;;;23.64;38.41
39739;BME280;25422;48.286;8.484;2023-06-05T06:10:37;94148.78;;;22.22;39.69
39739;BME280;25422;48.286;8.484;2023-06-05T06:13:03;94154.13;;;22.56;40.29
39739;BME280;25422;48.286;8.484;2023-06-05T06:15:30;94151.41;;;22.95;39.71
39739;BME280;25422;48.286;8.484;2023-06-05T06:17:56;94157.16;;;23.04;40.44
39739;BME280;25422;48.286;8.484;2023-06-05T06:20:22;94153.97;;;24.71;37.16
39739;BME280;25422;48.286;8.484;2023-06-05T06:22:47;94157.00;;;23.87;38.79
39739;BME280;25422;48.286;8.484;2023-06-05T06:25:13;94158.03;;;23.54;38.43
39739;BME280;25422;48.286;8.484;2023-06-05T06:27:42;94153.50;;;24.84;33.57
39739;BME280;25422;48.286;8.484;2023-06-05T06:30:08;94163.84;;;23.06;36.07
39739;BME280;25422;48.286;8.484;2023-06-05T06:32:35;94162.94;;;23.89;35.83
39739;BME280;25422;48.286;8.484;2023-06-05T06:35:01;94165.69;;;22.84;36.33
39739;BME280;25422;48.286;8.484;2023-06-05T06:37:26;94160.91;;;24.34;34.20
39739;BME280;25422;48.286;8.484;2023-06-05T06:39:52;94164.13;;;25.27;32.77
39739;BME280;25422;48.286;8.484;2023-06-05T06:42:18;94158.63;;;25.59;32.50
39739;BME280;25422;48.286;8.484;2023-06-05T06:44:53;94161.75;;;24.40;34.00
39739;BME280;25422;48.286;8.484;2023-06-05T06:47:23;94160.38;;;25.28;33.38
39739;BME280;25422;48.286;8.484;2023-06-05T06:49:50;94156.25;;;25.00;34.43
39739;BME280;25422;48.286;8.484;2023-06-05T06:52:16;94165.09;;;25.69;32.54
39739;BME280;25422;48.286;8.484;2023-06-05T06:54:44;94159.00;;;26.56;32.13
39739;BME280;25422;48.286;8.484;2023-06-05T06:57:09;94161.94;;;26.90;31.91
39739;BME280;25422;48.286;8.484;2023-06-05T06:59:35;94164.94;;;26.12;32.12
39739;BME280;25422;48.286;8.484;2023-06-05T07:02:20;94167.31;;;26.75;31.20
39739;BME280;25422;48.286;8.484;2023-06-05T07:04:46;94162.06;;;27.35;30.45
39739;BME280;25422;48.286;8.484;2023-06-05T07:07:17;94163.00;;;27.00;30.22
39739;BME280;25422;48.286;8.484;2023-06-05T07:09:45;94157.88;;;27.03;30.69
39739;BME280;25422;48.286;8.484;2023-06-05T07:12:13;94164.47;;;27.47;30.17
39739;BME280;25422;48.286;8.484;2023-06-05T07:14:39;94158.00;;;25.32;33.64
39739;BME280;25422;48.286;8.484;2023-06-05T07:17:05;94165.16;;;26.00;32.63
39739;BME280;25422;48.286;8.484;2023-06-05T07:19:32;94151.25;;;26.39;31.86
39739;BME280;25422;48.286;8.484;2023-06-05T07:21:58;94155.16;;;27.14;31.74
39739;BME280;25422;48.286;8.484;2023-06-05T07:24:25;94152.69;;;27.88;29.54
39739;BME280;25422;48.286;8.484;2023-06-05T07:26:54;94152.72;;;28.22;29.14
39739;BME280;25422;48.286;8.484;2023-06-05T07:29:23;94153.00;;;28.21;28.59
39739;BME280;25422;48.286;8.484;2023-06-05T07:31:53;94146.75;;;27.86;28.64
39739;BME280;25422;48.286;8.484;2023-06-05T07:34:19;94147.16;;;28.43;28.74
39739;BME280;25422;48.286;8.484;2023-06-05T07:36:46;94147.97;;;28.09;29.78
39739;BME280;25422;48.286;8.484;2023-06-05T07:39:13;94153.75;;;27.87;28.33
39739;BME280;25422;48.286;8.484;2023-06-05T07:41:39;94153.13;;;26.74;29.43
39739;BME280;25422;48.286;8.484;2023-06-05T07:44:14;94155.03;;;26.22;30.47
39739;BME280;25422;48.286;8.484;2023-06-05T07:46:40;94149.53;;;25.61;30.29
39739;BME280;25422;48.286;8.484;2023-06-05T07:49:05;94150.91;;;25.84;29.58
39739;BME280;25422;48.286;8.484;2023-06-05T07:51:31;94151.72;;;25.79;29.80
39739;BME280;25422;48.286;8.484;2023-06-05T07:54:02;94153.94;;;26.29;29.86
39739;BME280;25422;48.286;8.484;2023-06-05T07:56:28;94151.25;;;26.03;28.60
39739;BME280;25422;48.286;8.484;2023-06-05T07:58:53;94149.81;;;25.64;29.63
39739;BME280;25422;48.286;8.484;2023-06-05T08:01:19;94151.19;;;25.98;28.64
39739;BME280;25422;48.286;8.484;2023-06-05T08:03:46;94144.81;;;26.30;29.49
39739;BME280;25422;48.286;8.484;2023-06-05T08:06:11;94152.28;;;25.91;29.82
39739;BME280;25422;48.286;8.484;2023-06-05T08:08:37;94148.53;;;25.98;31.25
39739;BME280;25422;48.286;8.484;2023-06-05T08:11:02;94149.66;;;26.28;30.70
39739;BME280;25422;48.286;8.484;2023-06-05T08:13:28;94148.03;;;26.37;29.60
39739;BME280;25422;48.286;8.484;2023-06-05T08:15:55;94147.41;;;26.97;29.35
39739;BME280;25422;48.286;8.484;2023-06-05T08:18:20;94151.53;;;27.54;28.67
39739;BME280;25422;48.286;8.484;2023-06-05T08:20:46;94138.06;;;26.84;29.92
39739;BME280;25422;48.286;8.484;2023-06-05T08:23:12;94146.13;;;27.59;28.36
39739;BME280;25422;48.286;8.484;2023-06-05T08:25:37;94148.19;;;27.73;28.44
39739;BME280;25422;48.286;8.484;2023-06-05T08:28:05;94142.56;;;27.04;28.36
39739;BME280;25422;48.286;8.484;2023-06-05T08:30:31;94139.78;;;27.30;28.05
39739;BME280;25422;48.286;8.484;2023-06-05T08:32:56;94139.19;;;26.26;30.28
39739;BME280;25422;48.286;8.484;2023-06-05T08:35:22;94138.63;;;26.81;29.03
39739;BME280;25422;48.286;8.484;2023-06-05T08:37:48;94143.00;;;27.32;29.54
39739;BME280;25422;48.286;8.484;2023-06-05T08:40:14;94144.53;;;27.53;28.42
39739;BME280;25422;48.286;8.484;2023-06-05T08:42:40;94145.47;;;27.78;29.22
39739;BME280;25422;48.286;8.484;2023-06-05T08:45:08;94138.88;;;28.05;28.45
39739;BME280;25422;48.286;8.484;2023-06-05T08:47:38;94137.50;;;28.42;27.64
39739;BME280;25422;48.286;8.484;2023-06-05T08:50:07;94138.09;;;28.63;26.73
39739;BME280;25422;48.286;8.484;2023-06-05T08:52:33;94138.59;;;28.70;26.79
39739;BME280;25422;48.286;8.484;2023-06-05T08:55:05;94130.94;;;28.53;26.50
39739;BME280;25422;48.286;8.484;2023-06-05T08:57:34;94136.06;;;28.20;26.45
39739;BME280;25422;48.286;8.484;2023-06-05T09:00:03;94132.22;;;28.61;26.02
39739;BME280;25422;48.286;8.484;2023-06-05T09:02:39;94137.84;;;28.35;27.81
39739;BME280;25422;48.286;8.484;2023-06-05T09:05:06;94137.72;;;28.16;27.49
39739;BME280;25422;48.286;8.484;2023-06-05T09:07:33;94129.28;;;28.57;26.04
39739;BME280;25422;48.286;8.484;2023-06-05T09:09:58;94137.38;;;27.28;26.16
39739;BME280;25422;48.286;8.484;2023-06-05T09:12:24;94130.59;;;26.50;26.76
39739;BME280;25422;48.286;8.484;2023-06-05T09:14:51;94133.06;;;27.32;27.02
39739;BME280;25422;48.286;8.484;2023-06-05T09:17:16;94133.25;;;26.65;28.30
39739;BME280;25422;48.286;8.484;2023-06-05T09:19:43;94131.97;;;26.32;28.19
39739;BME280;25422;48.286;8.484;2023-06-05T09:22:11;94132.44;;;26.80;28.77
39739;BME280;25422;48.286;8.484;2023-06-05T09:24:38;94128.97;;;27.50;27.63
39739;BME280;25422;48.286;8.484;2023-06-05T09:27:10;94135.69;;;26.51;26.79
39739;BME280;25422;48.286;8.484;2023-06-05T09:29:40;94126.50;;;26.93;27.76
39739;BME280;25422;48.286;8.484;2023-06-05T09:32:16;94128.88;;;27.00;27.00
39739;BME280;25422;48.286;8.484;2023-06-05T09:34:42;94117.72;;;26.31;27.83
39739;BME280;25422;48.286;8.484;2023-06-05T09:37:11;94131.50;;;27.16;26.56
39739;BME280;25422;48.286;8.484;2023-06-05T09:39:39;94128.69;;;25.99;27.60
39739;BME280;25422;48.286;8.484;2023-06-05T09:42:05;94131.91;;;25.96;28.26
39739;BME280;25422;48.286;8.484;2023-06-05T09:44:32;94127.38;;;26.53;28.53
39739;BME280;25422;48.286;8.484;2023-06-05T09:47:03;94126.03;;;26.24;28.29
39739;BME280;25422;48.286;8.484;2023-06-05T09:49:46;94127.94;;;26.19;27.95
39739;BME280;25422;48.286;8.484;2023-06-05T09:52:12;94124.94;;;26.56;26.48
39739;BME280;25422;48.286;8.484;2023-06-05T09:54:40;94114.81;;;26.22;26.08
39739;BME280;25422;48.286;8.484;2023-06-05T09:57:09;94119.38;;;27.29;25.04
39739;BME280;25422;48.286;8.484;2023-06-05T10:02:12;94123.31;;;26.71;27.83
39739;BME280;25422;48.286;8.484;2023-06-05T10:05:10;94123.88;;;26.78;27.73
39739;BME280;25422;48.286;8.484;2023-06-05T10:07:36;94120.81;;;27.11;26.96
39739;BME280;25422;48.286;8.484;2023-06-05T10:10:02;94123.34;;;25.83;27.88
39739;BME280;25422;48.286;8.484;2023-06-05T10:12:30;94122.28;;;25.84;29.13
39739;BME280;25422;48.286;8.484;2023-06-05T10:14:56;94125.88;;;25.32;30.14
39739;BME280;25422;48.286;8.484;2023-06-05T10:17:22;94125.75;;;26.62;29.52
39739;BME280;25422;48.286;8.484;2023-06-05T10:19:48;94133.91;;;27.22;29.28
39739;BME280;25422;48.286;8.484;2023-06-05T10:22:16;94119.78;;;26.96;28.64
39739;BME280;25422;48.286;8.484;2023-06-05T10:24:56;94130.06;;;27.44;28.60
39739;BME280;25422;48.286;8.484;2023-06-05T10:27:50;94128.22;;;26.22;30.58
39739;BME280;25422;48.286;8.484;2023-06-05T10:35:53;94115.78;;;26.68;30.37
39739;BME280;25422;48.286;8.484;2023-06-05T10:38:26;94113.66;;;26.75;32.19
39739;BME280;25422;48.286;8.484;2023-06-05T10:45:52;94113.44;;;25.99;33.29
39739;BME280;25422;48.286;8.484;2023-06-05T10:48:18;94112.63;;;25.88;32.35
39739;BME280;25422;48.286;8.484;2023-06-05T10:50:44;94114.50;;;25.93;33.04
39739;BME280;25422;48.286;8.484;2023-06-05T10:53:41;94115.56;;;26.59;31.35
39739;BME280;25422;48.286;8.484;2023-06-05T10:56:06;94119.03;;;25.77;32.44
39739;BME280;25422;48.286;8.484;2023-06-05T10:58:32;94112.34;;;25.69;31.85
39739;BME280;25422;48.286;8.484;2023-06-05T11:01:17;94114.75;;;25.76;32.56
39739;BME280;25422;48.286;8.484;2023-06-05T11:03:55;94102.19;;;26.28;31.30
39739;BME280;25422;48.286;8.484;2023-06-05T11:06:21;94110.16;;;26.85;31.12
39739;BME280;25422;48.286;8.484;2023-06-05T11:09:13;94111.25;;;25.60;33.09
39739;BME280;25422;48.286;8.484;2023-06-05T11:11:58;94109.09;;;26.65;31.30
39739;BME280;25422;48.286;8.484;2023-06-05T11:14:25;94107.25;;;25.83;31.66
39739;BME280;25422;48.286;8.484;2023-06-05T11:17:31;94112.56;;;26.91;31.30
39739;BME280;25422;48.286;8.484;2023-06-05T11:19:58;94108.25;;;26.85;32.09
39739;BME280;25422;48.286;8.484;2023-06-05T11:22:24;94117.72;;;26.47;32.79
39739;BME280;25422;48.286;8.484;2023-06-05T11:27:49;94109.41;;;26.38;32.60
39739;BME280;25422;48.286;8.484;2023-06-05T11:30:17;94105.41;;;25.99;32.84
39739;BME280;25422;48.286;8.484;2023-06-05T11:32:44;94102.44;;;26.11;32.30
39739;BME280;25422;48.286;8.484;2023-06-05T11:35:10;94109.66;;;26.57;31.50
39739;BME280;25422;48.286;8.484;2023-06-05T11:37:36;94101.25;;;26.95;32.01
39739;BME280;25422;48.286;8.484;2023-06-05T11:40:05;94099.97;;;25.48;33.57
39739;BME280;25422;48.286;8.484;2023-06-05T11:42:44;94089.22;;;24.69;35.50
39739;BME280;25422;48.286;8.484;2023-06-05T11:45:12;94097.31;;;25.48;34.81
39739;BME280;25422;48.286;8.484;2023-06-05T11:47:38;94100.72;;;25.38;34.31
39739;BME280;25422;48.286;8.484;2023-06-05T11:50:11;94086.84;;;26.59;33.31
39739;BME280;25422;48.286;8.484;2023-06-05T11:52:37;94084.47;;;26.37;35.47
39739;BME280;25422;48.286;8.484;2023-06-05T11:55:17;94091.94;;;25.53;34.36
39739;BME280;25422;48.286;8.484;2023-06-05T11:57:47;94086.69;;;24.52;35.11
39739;BME280;25422;48.286;8.484;2023-06-05T12:00:14;94086.69;;;25.05;35.03
39739;BME280;25422;48.286;8.484;2023-06-05T12:02:43;94090.16;;;26.10;34.33
39739;BME280;25422;48.286;8.484;2023-06-05T12:05:09;94089.56;;;26.23;34.04
39739;BME280;25422;48.286;8.484;2023-06-05T12:07:35;94083.03;;;26.86;34.25
39739;BME280;25422;48.286;8.484;2023-06-05T12:10:08;94085.78;;;26.61;35.59
39739;BME280;25422;48.286;8.484;2023-06-05T12:12:55;94081.25;;;25.84;35.40
39739;BME280;25422;48.286;8.484;2023-06-05T12:15:21;94073.47;;;24.78;38.03
39739;BME280;25422;48.286;8.484;2023-06-05T12:17:54;94082.22;;;24.63;39.23
39739;BME280;25422;48.286;8.484;2023-06-05T12:20:21;94078.22;;;25.29;38.70
39739;BME280;25422;48.286;8.484;2023-06-05T12:22:47;94069.56;;;25.06;38.70
39739;BME280;25422;48.286;8.484;2023-06-05T12:25:20;94072.19;;;23.72;41.48
39739;BME280;25422;48.286;8.484;2023-06-05T12:27:46;94078.28;;;23.35;42.03
39739;BME280;25422;48.286;8.484;2023-06-05T12:30:12;94068.13;;;23.92;39.78
39739;BME280;25422;48.286;8.484;2023-06-05T12:32:38;94066.78;;;25.80;37.95
39739;BME280;25422;48.286;8.484;2023-06-05T12:35:22;94064.38;;;25.93;36.71
39739;BME280;25422;48.286;8.484;2023-06-05T12:37:49;94061.69;;;26.30;35.67
39739;BME280;25422;48.286;8.484;2023-06-05T12:40:15;94062.78;;;26.03;35.58
39739;BME280;25422;48.286;8.484;2023-06-05T12:42:46;94065.91;;;27.37;33.18
39739;BME280;25422;48.286;8.484;2023-06-05T12:45:13;94063.75;;;27.39;32.33
39739;BME280;25422;48.286;8.484;2023-06-05T12:47:39;94059.19;;;27.35;33.10
39739;BME280;25422;48.286;8.484;2023-06-05T12:50:07;94054.59;;;27.46;32.46
39739;BME280;25422;48.286;8.484;2023-06-05T12:52:33;94051.09;;;27.45;32.52
39739;BME280;25422;48.286;8.484;2023-06-05T12:54:58;94046.94;;;28.56;31.33
39739;BME280;25422;48.286;8.484;2023-06-05T12:57:24;94050.25;;;27.89;30.95
39739;BME280;25422;48.286;8.484;2023-06-05T12:59:52;94044.63;;;27.51;31.40
39739;BME280;25422;48.286;8.484;2023-06-05T13:02:19;94046.81;;;28.42;30.12
39739;BME280;25422;48.286;8.484;2023-06-05T13:04:44;94037.78;;;29.30;28.56
39739;BME280;25422;48.286;8.484;2023-06-05T13:07:11;94032.56;;;29.53;28.54
39739;BME280;25422;48.286;8.484;2023-06-05T13:09:36;94035.66;;;29.22;28.31
39739;BME280;25422;48.286;8.484;2023-06-05T13:12:02;94029.88;;;29.53;27.54
39739;BME280;25422;48.286;8.484;2023-06-05T13:14:29;94040.09;;;28.93;28.21
39739;BME280;25422;48.286;8.484;2023-06-05T13:16:56;94034.31;;;30.01;25.39
39739;BME280;25422;48.286;8.484;2023-06-05T13:19:22;94025.72;;;28.79;27.32
39739;BME280;25422;48.286;8.484;2023-06-05T13:21:47;94020.22;;;30.04;26.66
39739;BME280;25422;48.286;8.484;2023-06-05T13:24:12;94023.19;;;29.31;28.13